Frewsburg, New York
Current Conditions -  °F | °C
As of 7:55 PM on Wednesday 22 Oct 2014 (Local Time) from KJHW Reporting Station
Overcast Overcast  
Wind Chill: 37°   Ceiling: 600
Heat Index: 43°   Visibility: 10mi
Dew Point: 39°   Wind: 9mph
Humidity: 87%   Direction: 360°N
Pressure: 30.2"   Gusts: NA
Location:  42.05°N, 79.16°W
Report Text: KJHW 222355Z AUTO 36008KT 10SM OVC006 06/04 A3020 RMK AO1 10060 20060 400800040 52007
Loading
Personal Weather Stations






























Interactive Weather Map
Tropical Storm Tracking
New forecast layout! Learn more

10-Day Weather Forecast

Advertisements
Track Severe Weather on mobile